Terminal Aerodrome Forecast
Issued by NWS Pocatello, ID

Home | Current Version | Previous Version | Text Only | Print | Product List | Glossary On
Versions: 1 2 3 4 5 6 7 8 9 10 11 12 13 14 15 16 17 18 19 20 21 22 23 24
000
FTUS45 KPIH 290700 AAB
TAFBYI
TAF AMD
KBYI 290755Z 2908/3006 VRB06KT P6SM BKN015 OVC028
      TEMPO 2908/2910 5SM -SN BKN006 OVC010
     FM291300 24008KT P6SM OVC025
     FM292100 06009KT P6SM OVC035
     FM300200 06009KT P6SM OVC050=

USA.gov is the U.S. government's official web portal to all federal, state and local government web resources and services.